^^
Datos históricos de la estación: Murcia-Puente Tocinos
Diario Informe para Enero 30, 2019 Unidades:  Ingés    Métrico   Ambas
Diario Semanal Mensual Anual
  Máxima: Mínima: Promedio:
Temperatura: 77 °F 61.2 °F 68.2 °F
Punto de rocio: 54.7 °F 47.5 °F 51.4 °F
Humedad: 72% 36% 56%
Velocidad viento: 9.2mph 1.4mph 4.3mph
Racha viento: 19mph - -
Viento- - SSE
Presión: 30.2 in 30.2 in -
Precipitación: 0 in    
 
 
Tabla de datos para Enero 30, 2019
Hora Temperatura Punto de rocio Presión Viento Velocidad viento Racha viento Humedad Intensidad lluvia(por hora) Nubes
00:04 64 °F 51.3 °F 30.2 in ENE 4 mph 6 mph 63% 0 in
00:09 64 °F 51.3 °F 30.2 in ENE 3.3 mph 4 mph 63% 0 in
00:14 64 °F 51.3 °F 30.2 in NE 2 mph 4.6 mph 63% 0 in
00:19 64 °F 51.4 °F 30.2 in NE 2.1 mph 5.2 mph 63.7% 0 in
00:24 63.9 °F 51.6 °F 30.2 in NE 2.4 mph 6.9 mph 64.5% 0 in
00:29 63.9 °F 52 °F 30.2 in NE 2.4 mph 7 mph 65% 0 in
00:34 63.9 °F 52 °F 30.2 in NE 3.9 mph 6 mph 65.4% 0 in
00:39 63.9 °F 52.3 °F 30.2 in NE 3.7 mph 5.8 mph 66% 0 in
00:44 63.9 °F 52.3 °F 30.2 in NE 3.1 mph 6 mph 66% 0 in
00:49 63.7 °F 52.2 °F 30.2 in NE 3.3 mph 6 mph 66% 0 in
00:54 63.7 °F 52.3 °F 30.2 in NE 3.6 mph 5.2 mph 66.6% 0 in
00:59 63.5 °F 52.2 °F 30.2 in NNE 3.3 mph 5 mph 66.7% 0 in
01:04 63.3 °F 52.2 °F 30.2 in North 2.9 mph 3 mph 66.9% 0 in
01:09 63.3 °F 52.2 °F 30.2 in North 2.4 mph 3 mph 67% 0 in
01:14 63.3 °F 52.2 °F 30.2 in North 1.4 mph 3.6 mph 67% 0 in
01:19 63.3 °F 52.2 °F 30.2 in NO 1.6 mph 5.9 mph 67% 0 in
01:24 63.3 °F 52.2 °F 30.2 in ONO 2 mph 6 mph 67% 0 in
01:29 63.1 °F 52 °F 30.2 in NO 2.3 mph 5 mph 67% 0 in
01:34 63.1 °F 52 °F 30.2 in NO 2.9 mph 5.2 mph 67% 0 in
01:39 63.1 °F 52 °F 30.2 in NO 2.7 mph 5 mph 67% 0 in
01:44 63 °F 52 °F 30.2 in NO 2.4 mph 5 mph 67% 0 in
01:49 63 °F 51.8 °F 30.2 in ONO 2.2 mph 4.6 mph 67% 0 in
01:54 63 °F 51.8 °F 30.2 in NO 2 mph 5 mph 67% 0 in
01:59 63.1 °F 52 °F 30.2 in NO 1.7 mph 3 mph 67% 0 in
02:04 63.1 °F 52 °F 30.2 in NO 1.4 mph 3.5 mph 67% 0 in
02:09 63.1 °F 52 °F 30.2 in NO 1.4 mph 3.1 mph 67% 0 in
02:14 63.1 °F 52 °F 30.2 in NO 1.4 mph 3.5 mph 67% 0 in
02:19 63.1 °F 52 °F 30.2 in NO 1.4 mph 3 mph 67% 0 in
02:24 63.1 °F 52 °F 30.2 in NO 1.4 mph 4.6 mph 67% 0 in
02:29 63.1 °F 52 °F 30.2 in NO 1.6 mph 5 mph 67% 0 in
02:34 63.1 °F 52 °F 30.2 in NO 1.8 mph 4 mph 67% 0 in
02:39 63.1 °F 52.3 °F 30.2 in NO 1.9 mph 4.6 mph 67.8% 0 in
02:44 63 °F 52.2 °F 30.2 in ONO 2 mph 5 mph 68% 0 in
02:49 62.8 °F 52.3 °F 30.2 in NO 2.4 mph 5 mph 68.7% 0 in
02:54 62.8 °F 52.3 °F 30.2 in NO 2.9 mph 5 mph 69% 0 in
02:59 62.4 °F 52.2 °F 30.2 in NO 2.7 mph 5.2 mph 69% 0 in
03:04 62.4 °F 52 °F 30.2 in NO 2.4 mph 5 mph 68.6% 0 in
03:09 62.4 °F 51.6 °F 30.2 in NO 2.4 mph 5 mph 68% 0 in
03:14 62.4 °F 51.6 °F 30.2 in NO 2.4 mph 5 mph 68% 0 in
03:19 62.2 °F 51.4 °F 30.2 in NO 2.1 mph 4.7 mph 68% 0 in
03:24 62.2 °F 52.2 °F 30.2 in SE 1.4 mph 6.9 mph 69.7% 0 in
03:29 62.2 °F 52.7 °F 30.2 in ESE 1.7 mph 7 mph 71% 0 in
03:34 62.2 °F 52.9 °F 30.2 in ESE 2.4 mph 3 mph 71.4% 0 in
03:39 62.2 °F 53.2 °F 30.2 in ESE 2.2 mph 3.5 mph 72% 0 in
03:44 62.2 °F 53.1 °F 30.2 in ESE 2 mph 3.1 mph 72% 0 in
03:49 62.2 °F 53.1 °F 30.2 in ESE 1.8 mph 4.6 mph 72% 0 in
03:54 62.2 °F 53.1 °F 30.2 in SE 1.4 mph 5 mph 71.9% 0 in
03:59 62.2 °F 52.7 °F 30.2 in Sur 1.8 mph 5 mph 71% 0 in
04:04 62.1 °F 52.5 °F 30.2 in Sur 2.4 mph 5 mph 71% 0 in
04:09 62.1 °F 52.5 °F 30.2 in Sur 2.4 mph 5 mph 71% 0 in
04:14 62.1 °F 52.3 °F 30.2 in Sur 2.4 mph 5 mph 70.8% 0 in
04:19 62.1 °F 52.2 °F 30.2 in Sur 2.5 mph 5.2 mph 70% 0 in
04:24 62.1 °F 52.2 °F 30.2 in SSO 2.9 mph 5 mph 70% 0 in
04:29 62.2 °F 52.3 °F 30.2 in OSO 2.7 mph 5 mph 69.9% 0 in
04:34 62.2 °F 52 °F 30.2 in OSO 2.4 mph 4 mph 69% 0 in
04:39 62.2 °F 51.8 °F 30.2 in SSO 2.2 mph 6.9 mph 68.7% 0 in
04:44 62.1 °F 51.4 °F 30.2 in SO 1.8 mph 7 mph 68% 0 in
04:49 62.1 °F 51.4 °F 30.2 in SO 2.6 mph 7 mph 68% 0 in
04:54 62.1 °F 51.3 °F 30.2 in OSO 4 mph 6.2 mph 67.6% 0 in
04:59 61.9 °F 50.9 °F 30.2 in OSO 3.7 mph 6 mph 67% 0 in
05:04 61.9 °F 50.7 °F 30.2 in OSO 3.1 mph 6 mph 67% 0 in
05:09 61.9 °F 50.7 °F 30.2 in OSO 3 mph 5.2 mph 67% 0 in
05:14 61.7 °F 50.5 °F 30.2 in SO 2.9 mph 5 mph 67% 0 in
05:19 61.7 °F 50.5 °F 30.2 in SO 2.5 mph 5 mph 67% 0 in
05:24 61.5 °F 50.5 °F 30.2 in SO 2 mph 4.6 mph 67% 0 in
05:29 61.5 °F 50.5 °F 30.2 in SO 1.9 mph 5 mph 67% 0 in
05:34 61.5 °F 50.5 °F 30.2 in SO 1.8 mph 5.4 mph 67% 0 in
05:39 61.7 °F 50.5 °F 30.2 in SSO 2.2 mph 6 mph 67% 0 in
05:44 61.7 °F 50.5 °F 30.2 in SSO 2.9 mph 6 mph 67% 0 in
05:49 61.9 °F 50.7 °F 30.2 in SO 2.9 mph 6 mph 67% 0 in
05:54 61.9 °F 50.7 °F 30.2 in SO 2.9 mph 6 mph 67% 0 in
05:59 61.9 °F 50.7 °F 30.2 in OSO 3.2 mph 6.2 mph 67% 0 in
06:04 61.9 °F 50.5 °F 30.2 in SO 3.6 mph 6.2 mph 66.5% 0 in
06:09 61.9 °F 50.4 °F 30.2 in SO 3.4 mph 6.9 mph 66% 0 in
06:14 61.9 °F 50.5 °F 30.2 in SO 3.1 mph 7 mph 66.6% 0 in
06:19 61.7 °F 50.5 °F 30.2 in OSO 3.4 mph 6 mph 66.9% 0 in
06:24 61.7 °F 50.5 °F 30.2 in SO 4 mph 6 mph 67% 0 in
06:29 61.7 °F 50.5 °F 30.2 in SO 3.6 mph 5.9 mph 67% 0 in
06:34 61.7 °F 50.5 °F 30.2 in OSO 2.9 mph 6 mph 66.7% 0 in
06:39 61.5 °F 50.2 °F 30.2 in Oeste 2.9 mph 5 mph 66% 0 in
06:44 61.5 °F 50.2 °F 30.2 in SO 2.9 mph 5.8 mph 66% 0 in
06:49 61.3 °F 50 °F 30.2 in OSO 2.7 mph 6 mph 66% 0 in
06:54 61.3 °F 49.8 °F 30.2 in OSO 2.4 mph 5.8 mph 66% 0 in
06:59 61.3 °F 49.8 °F 30.2 in Oeste 2.4 mph 6 mph 66% 0 in
07:04 61.3 °F 49.8 °F 30.2 in SO 2.4 mph 5.2 mph 65.9% 0 in
07:09 61.3 °F 50 °F 30.2 in SSO 2.5 mph 5.2 mph 66.7% 0 in
07:14 61.2 °F 50.2 °F 30.2 in SSO 2.9 mph 5 mph 67% 0 in
07:19 61.2 °F 50.2 °F 30.2 in Sur 2.7 mph 4.7 mph 67% 0 in
07:24 61.2 °F 50.2 °F 30.2 in Sur 2.4 mph 5 mph 67% 0 in
07:29 61.3 °F 50.4 °F 30.2 in SSE 2.1 mph 5 mph 67% 0 in
07:34 61.5 °F 50.2 °F 30.2 in Sur 1.4 mph 5 mph 66.2% 0 in
07:39 61.5 °F 50 °F 30.2 in Sur 2.1 mph 5.2 mph 66% 0 in
07:44 61.5 °F 50.5 °F 30.2 in Sur 3.1 mph 5 mph 67% 0 in
07:49 61.5 °F 50.5 °F 30.2 in Sur 3.1 mph 5 mph 67% 0 in
07:54 61.5 °F 50.9 °F 30.2 in SSO 3.1 mph 5.8 mph 67.9% 0 in
07:59 61.9 °F 51.1 °F 30.2 in SSO 3.1 mph 6 mph 68% 0 in
08:04 62.1 °F 51.1 °F 30.2 in SO 3.1 mph 5.2 mph 67.4% 0 in
08:09 62.1 °F 50.9 °F 30.2 in OSO 2.7 mph 5 mph 66.8% 0 in
08:14 62.2 °F 50.9 °F 30.2 in ONO 2 mph 5.9 mph 66.3% 0 in
08:19 62.2 °F 50.7 °F 30.2 in ONO 2.2 mph 6 mph 66% 0 in
08:24 62.6 °F 51.1 °F 30.2 in Oeste 2.4 mph 3.6 mph 66% 0 in
08:29 63 °F 51.1 °F 30.2 in ONO 2.2 mph 4.7 mph 65.3% 0 in
08:34 63.1 °F 51.1 °F 30.2 in Oeste 1.8 mph 5.2 mph 64.7% 0 in
08:39 63.3 °F 50.9 °F 30.2 in OSO 1.9 mph 5 mph 64% 0 in
08:44 63.3 °F 50.9 °F 30.2 in Oeste 2 mph 5 mph 64% 0 in
08:49 63.3 °F 50.9 °F 30.2 in Oeste 2.4 mph 5.8 mph 63.9% 0 in
08:54 63.3 °F 50.7 °F 30.2 in ONO 2.9 mph 6.2 mph 63.5% 0 in
08:59 63.7 °F 50.7 °F 30.2 in NO 3 mph 6.2 mph 63% 0 in
09:04 63.9 °F 50.5 °F 30.2 in Oeste 3.1 mph 6 mph 62.1% 0 in
09:09 63.9 °F 50.7 °F 30.2 in Oeste 3 mph 5.9 mph 62% 0 in
09:14 64 °F 50.5 °F 30.2 in ONO 2.9 mph 6 mph 61.6% 0 in
09:19 64 °F 50.4 °F 30.2 in OSO 3 mph 6 mph 61% 0 in
09:24 64.6 °F 50.7 °F 30.2 in SO 3.1 mph 5 mph 60.8% 0 in
09:29 64.9 °F 50.7 °F 30.2 in SO 2.9 mph 5.2 mph 60% 0 in
09:34 65.3 °F 51.1 °F 30.2 in Oeste 2.4 mph 5.2 mph 60% 0 in
09:39 65.5 °F 51.6 °F 30.2 in Sur 2.6 mph 5 mph 60.8% 0 in
09:44 65.5 °F 51.6 °F 30.2 in OSO 2.9 mph 5 mph 61% 0 in
09:49 65.7 °F 51.8 °F 30.2 in ONO 2.7 mph 6.9 mph 60.9% 0 in
09:54 66.2 °F 52.2 °F 30.2 in Oeste 2.4 mph 7 mph 60.5% 0 in
09:59 66.6 °F 52.3 °F 30.2 in OSO 2.6 mph 6 mph 60.5% 0 in
10:04 66.7 °F 52.9 °F 30.2 in Oeste 2.9 mph 6 mph 61.2% 0 in
10:09 67.3 °F 53.2 °F 30.2 in North 2.6 mph 6.2 mph 60.8% 0 in
10:14 67.5 °F 53.2 °F 30.2 in ONO 2 mph 6 mph 60.6% 0 in
10:19 67.5 °F 53.4 °F 30.2 in ONO 2.3 mph 6 mph 60.6% 0 in
10:24 67.6 °F 53.6 °F 30.2 in ONO 2.9 mph 5 mph 60.6% 0 in
10:29 68.4 °F 53.8 °F 30.2 in SE 2.5 mph 5.4 mph 59.9% 0 in
10:34 68.9 °F 53.8 °F 30.2 in Este 1.8 mph 6.4 mph 58.4% 0 in
10:39 69.1 °F 53.4 °F 30.2 in ENE 2.6 mph 7 mph 57.6% 0 in
10:44 68.9 °F 53.2 °F 30.2 in NNE 4 mph 7 mph 57.7% 0 in
10:49 69.3 °F 53.4 °F 30.2 in ESE 3.7 mph 6.9 mph 57.2% 0 in
10:54 69.4 °F 53.4 °F 30.2 in ESE 3.1 mph 7 mph 56.7% 0 in
10:59 70 °F 53.6 °F 30.2 in NE 2.7 mph 6.9 mph 56.1% 0 in
11:04 70 °F 53.4 °F 30.2 in NE 2 mph 8.1 mph 55.7% 0 in
11:09 69.6 °F 53.2 °F 30.2 in NNE 2.9 mph 8.1 mph 56% 0 in
11:14 69.6 °F 53.2 °F 30.2 in NNO 4.3 mph 6.2 mph 56% 0 in
11:19 69.6 °F 53.2 °F 30.2 in North 3.9 mph 6 mph 56% 0 in
11:24 70.3 °F 53.8 °F 30.2 in ENE 3.1 mph 5 mph 55.9% 0 in
11:29 70.9 °F 53.8 °F 30.2 in NE 2.9 mph 9.7 mph 54.8% 0 in
11:34 70.7 °F 53.2 °F 30.2 in North 2.4 mph 10 mph 54.1% 0 in
11:39 70.5 °F 53.4 °F 30.2 in NNO 2.8 mph 8 mph 54.6% 0 in
11:44 70.5 °F 53.6 °F 30.2 in NNO 3.6 mph 6 mph 55% 0 in
11:49 71.1 °F 53.6 °F 30.2 in NE 3.2 mph 6.9 mph 54.2% 0 in
11:54 71.2 °F 53.4 °F 30.2 in NO 2.4 mph 7 mph 53.4% 0 in
11:59 71.2 °F 53.6 °F 30.2 in North 2.7 mph 8.5 mph 53.7% 0 in
12:04 71.4 °F 53.6 °F 30.2 in North 3.1 mph 11.5 mph 53.4% 0 in
12:09 71.6 °F 53.6 °F 30.2 in SSE 3.3 mph 12 mph 53% 0 in
12:14 72 °F 53.6 °F 30.2 in SSE 3.6 mph 10 mph 52.4% 0 in
12:19 71.8 °F 53.4 °F 30.2 in OSO 3.9 mph 8.1 mph 52.4% 0 in
12:24 71.6 °F 53.6 °F 30.2 in North 4.3 mph 10.4 mph 53% 0 in
12:29 72 °F 53.6 °F 30.2 in NE 4.6 mph 11.8 mph 52.4% 0 in
12:34 71.8 °F 53.4 °F 30.2 in Este 5.2 mph 12 mph 52.3% 0 in
12:39 72 °F 53.6 °F 30.2 in NE 5.5 mph 12.3 mph 52.6% 0 in
12:44 71.8 °F 53.4 °F 30.2 in NNE 5.9 mph 13 mph 52.4% 0 in
12:49 72 °F 53.4 °F 30.2 in NNO 5.9 mph 13 mph 52.1% 0 in
12:54 72.1 °F 53.2 °F 30.2 in NE 5.9 mph 12.7 mph 51.3% 0 in
12:59 72.5 °F 53.4 °F 30.2 in NE 6 mph 13 mph 51% 0 in
13:04 73 °F 53.4 °F 30.2 in ENE 6.2 mph 12 mph 50.3% 0 in
13:09 73.6 °F 53.8 °F 30.2 in NNE 5.3 mph 12 mph 49.9% 0 in
13:14 73.8 °F 53.8 °F 30.2 in NNE 3.6 mph 12 mph 49.6% 0 in
13:19 73.8 °F 53.6 °F 30.2 in NE 4.5 mph 13.8 mph 49.2% 0 in
13:24 74.1 °F 53.4 °F 30.2 in ENE 5.9 mph 14 mph 48.6% 0 in
13:29 74.5 °F 53.2 °F 30.2 in ENE 6 mph 10.4 mph 47.6% 0 in
13:34 74.1 °F 53.1 °F 30.2 in Este 6.2 mph 10.4 mph 47.8% 0 in
13:39 73.9 °F 52.3 °F 30.2 in NE 6.3 mph 13.8 mph 46.7% 0 in
13:44 73.9 °F 51.8 °F 30.2 in Este 6.4 mph 14 mph 46.1% 0 in
13:49 73.9 °F 52.3 °F 30.2 in NE 6.3 mph 11.2 mph 46.8% 0 in
13:54 74.3 °F 51.8 °F 30.2 in ENE 6.2 mph 13.8 mph 45.3% 0 in
13:59 74.7 °F 51.6 °F 30.2 in NE 6.3 mph 14 mph 44.7% 0 in
14:04 74.8 °F 51.6 °F 30.2 in ENE 6.4 mph 12 mph 44.2% 0 in
14:09 75 °F 51.3 °F 30.2 in ENE 6 mph 12 mph 43.5% 0 in
14:14 75.2 °F 50.9 °F 30.2 in NE 5.2 mph 15 mph 42.5% 0 in
14:19 75 °F 50.7 °F 30.2 in ENE 6.1 mph 15 mph 42.7% 0 in
14:24 75.2 °F 50 °F 30.2 in NNE 7.6 mph 16.1 mph 41.2% 0 in
14:29 75.4 °F 49.5 °F 30.2 in ENE 7.5 mph 16 mph 39.9% 0 in
14:34 75.7 °F 49.3 °F 30.2 in NE 7.4 mph 14.7 mph 39.3% 0 in
14:39 75.9 °F 49.3 °F 30.2 in NE 7.8 mph 17.3 mph 39% 0 in
14:44 76.5 °F 49.3 °F 30.2 in NE 8.5 mph 17 mph 38.4% 0 in
14:49 76.5 °F 48.7 °F 30.2 in ENE 7.8 mph 14 mph 37.7% 0 in
14:54 76.6 °F 48 °F 30.2 in NE 6.4 mph 13 mph 36.5% 0 in
14:59 76.5 °F 48 °F 30.2 in ENE 6.6 mph 14.7 mph 36.7% 0 in
15:04 76.3 °F 48.2 °F 30.2 in ENE 6.9 mph 15 mph 37.1% 0 in
15:09 76.5 °F 47.8 °F 30.2 in ESE 7.1 mph 15 mph 36.6% 0 in
15:14 76.5 °F 48.2 °F 30.2 in Este 7.6 mph 14.7 mph 37% 0 in
15:19 76.3 °F 48.2 °F 30.2 in Este 7.5 mph 15 mph 37.1% 0 in
15:24 76.5 °F 48.9 °F 30.2 in ESE 7.4 mph 18.4 mph 38.2% 0 in
15:29 76.3 °F 48.9 °F 30.2 in SE 7.9 mph 18 mph 38% 0 in
15:34 76.3 °F 49.1 °F 30.2 in SE 8.7 mph 15 mph 38.4% 0 in
15:39 76.1 °F 48.7 °F 30.2 in ENE 8.3 mph 15 mph 38.1% 0 in
15:44 75.9 °F 48.7 °F 30.2 in Este 7.4 mph 13.8 mph 38.2% 0 in
15:49 75.7 °F 48.4 °F 30.2 in ESE 7.2 mph 14 mph 38% 0 in
15:54 75.6 °F 48.4 °F 30.2 in Este 6.9 mph 13 mph 38.2% 0 in
15:59 75.9 °F 49.1 °F 30.2 in Este 6.3 mph 11.5 mph 38.8% 0 in
16:04 76.6 °F 49.1 °F 30.2 in Este 5.2 mph 12 mph 38% 0 in
16:09 76.8 °F 48.6 °F 30.2 in Este 5.5 mph 12 mph 37% 0 in
16:14 76.6 °F 48.4 °F 30.2 in Este 5.9 mph 12 mph 36.9% 0 in
16:19 76.5 °F 48.2 °F 30.2 in ENE 5.9 mph 13 mph 36.9% 0 in
16:24 76.5 °F 48.4 °F 30.2 in ENE 5.9 mph 13 mph 37% 0 in
16:29 76.5 °F 48.4 °F 30.2 in ESE 6.3 mph 14 mph 37% 0 in
16:34 76.5 °F 48.2 °F 30.2 in ESE 6.9 mph 14 mph 37% 0 in
16:39 76.5 °F 48.4 °F 30.2 in ESE 7.1 mph 15 mph 37.3% 0 in
16:44 76.3 °F 48.2 °F 30.2 in ESE 7.6 mph 15 mph 37% 0 in
16:49 76.5 °F 47.8 °F 30.2 in ESE 7.3 mph 15.2 mph 36.6% 0 in
16:54 76.5 °F 47.8 °F 30.2 in ESE 6.9 mph 15 mph 36.4% 0 in
16:59 76.5 °F 47.5 °F 30.2 in SE 7.1 mph 15 mph 36% 0 in
17:04 76.5 °F 47.7 °F 30.2 in SE 7.4 mph 10.7 mph 36% 0 in
17:09 76.6 °F 48 °F 30.2 in ESE 7 mph 12.7 mph 36.4% 0 in
17:14 76.8 °F 47.8 °F 30.2 in SE 6.2 mph 13 mph 36% 0 in
17:19 76.8 °F 47.8 °F 30.2 in SE 6.3 mph 12.7 mph 36% 0 in
17:24 76.8 °F 48.2 °F 30.2 in Este 6.4 mph 13.8 mph 36.3% 0 in
17:29 76.8 °F 48.2 °F 30.2 in ESE 6.6 mph 14 mph 36.5% 0 in
17:34 77 °F 48.6 °F 30.2 in ESE 6.9 mph 12.7 mph 36.8% 0 in
17:39 77 °F 48.7 °F 30.2 in Este 6.6 mph 13 mph 37% 0 in
17:44 76.6 °F 48.9 °F 30.2 in Este 6.2 mph 12 mph 37.9% 0 in
17:49 76.5 °F 49.1 °F 30.2 in Este 6.7 mph 15 mph 38.3% 0 in
17:54 76.3 °F 49.5 °F 30.2 in Este 7.6 mph 15 mph 39% 0 in
17:59 76.3 °F 49.6 °F 30.2 in ESE 7.1 mph 12.7 mph 39.1% 0 in
18:04 76.1 °F 50.2 °F 30.2 in ESE 6.4 mph 14.5 mph 40% 0 in
18:09 75.9 °F 50 °F 30.2 in ESE 6.8 mph 15.2 mph 40.3% 0 in
18:14 75.7 °F 50.5 °F 30.2 in ESE 7.6 mph 15 mph 41.4% 0 in
18:19 75.6 °F 50.5 °F 30.2 in ESE 7.8 mph 14 mph 41.5% 0 in
18:24 75.6 °F 50.9 °F 30.2 in ESE 8.1 mph 14 mph 42% 0 in
18:29 75.9 °F 51.1 °F 30.2 in ESE 7.8 mph 13.7 mph 41.7% 0 in
18:34 75.9 °F 50.5 °F 30.2 in ESE 7.4 mph 15 mph 41% 0 in
18:39 75.6 °F 50.4 °F 30.2 in ESE 7.8 mph 18.5 mph 41.2% 0 in
18:44 74.7 °F 50.2 °F 30.2 in ESE 8.5 mph 19 mph 42.1% 0 in
18:49 74.7 °F 50.2 °F 30.2 in ESE 8.3 mph 16 mph 42.3% 0 in
18:54 74.7 °F 50 °F 30.2 in ESE 8.1 mph 13 mph 42% 0 in
18:59 74.5 °F 50.4 °F 30.2 in ESE 8.5 mph 15.2 mph 42.8% 0 in
19:04 74.3 °F 50.4 °F 30.2 in ESE 9.2 mph 15 mph 43% 0 in
19:09 74.5 °F 50.5 °F 30.2 in ESE 8.6 mph 14 mph 43% 0 in
19:14 74.5 °F 50.5 °F 30.2 in ESE 7.6 mph 12.7 mph 43% 0 in
19:19 74.5 °F 50.4 °F 30.2 in ESE 7.3 mph 13.8 mph 43% 0 in
19:24 74.1 °F 50.2 °F 30.2 in ESE 6.9 mph 14 mph 43% 0 in
19:29 73.9 °F 50 °F 30.2 in ESE 7.3 mph 14 mph 43.1% 0 in
19:34 73.8 °F 49.8 °F 30.2 in ESE 8.1 mph 13 mph 43% 0 in
19:39 73.4 °F 50 °F 30.2 in ESE 8.3 mph 13 mph 43.6% 0 in
19:44 73.2 °F 50 °F 30.2 in Este 8.5 mph 12.7 mph 43.9% 0 in
19:49 73 °F 49.3 °F 30.2 in Este 7.9 mph 13.8 mph 43.1% 0 in
19:54 73 °F 49.3 °F 30.2 in ESE 6.9 mph 14 mph 43% 0 in
19:59 73 °F 49.1 °F 30.2 in ESE 7.1 mph 13.8 mph 43% 0 in
20:04 72.7 °F 48.9 °F 30.2 in Este 7.4 mph 14 mph 43% 0 in
20:09 72.7 °F 48.9 °F 30.2 in Este 7.2 mph 13 mph 43% 0 in
20:14 72.7 °F 49.1 °F 30.2 in ESE 6.9 mph 14 mph 43.3% 0 in
20:19 72.3 °F 49.3 °F 30.2 in ESE 7.1 mph 14 mph 44% 0 in
20:24 72.1 °F 49.6 °F 30.2 in ESE 7.4 mph 14 mph 45.1% 0 in
20:29 72 °F 50 °F 30.2 in Este 7 mph 10.4 mph 45.8% 0 in
20:34 71.8 °F 50.4 °F 30.2 in ESE 6.4 mph 10.7 mph 46.6% 0 in
20:39 71.4 °F 50.7 °F 30.2 in ESE 6.4 mph 12.3 mph 47.9% 0 in
20:44 71.2 °F 51.3 °F 30.2 in Este 6.4 mph 12 mph 49% 0 in
20:49 71.1 °F 51.3 °F 30.2 in ESE 6.3 mph 11 mph 49.7% 0 in
20:54 70.5 °F 51.4 °F 30.2 in ESE 6.2 mph 13 mph 50.8% 0 in
20:59 70.3 °F 51.8 °F 30.2 in ESE 6.6 mph 13 mph 51.9% 0 in
21:04 70.2 °F 51.8 °F 30.2 in Este 7.4 mph 11.5 mph 52% 0 in
21:09 70.2 °F 52 °F 30.2 in Este 6.6 mph 12 mph 52.6% 0 in
21:14 70 °F 52.2 °F 30.2 in Este 5.2 mph 10 mph 53.3% 0 in
21:19 69.6 °F 52.2 °F 30.2 in Este 4.8 mph 9.2 mph 54.1% 0 in
21:24 69.3 °F 52.5 °F 30.2 in Este 4.3 mph 9 mph 55% 0 in
21:29 69.3 °F 52.5 °F 30.2 in Este 4.3 mph 8 mph 55.3% 0 in
21:34 68.9 °F 52.7 °F 30.2 in Este 4.3 mph 6.9 mph 56% 0 in
21:39 68.7 °F 52.9 °F 30.2 in ENE 4.2 mph 8.5 mph 56.9% 0 in
21:44 68.5 °F 52.9 °F 30.2 in Este 4 mph 9 mph 57.5% 0 in
21:49 68.4 °F 53.1 °F 30.2 in ENE 3.9 mph 8 mph 58% 0 in
21:54 68.2 °F 53.2 °F 30.2 in ENE 3.6 mph 6.9 mph 58.8% 0 in
21:59 67.8 °F 53.1 °F 30.2 in Este 3.4 mph 7 mph 59% 0 in
22:04 67.6 °F 53.2 °F 30.2 in ESE 3.1 mph 6 mph 60% 0 in
22:09 67.5 °F 53.4 °F 30.2 in Este 3.1 mph 6.9 mph 60.6% 0 in
22:14 67.5 °F 53.6 °F 30.2 in NE 3.1 mph 7 mph 61.1% 0 in
22:19 67.3 °F 54 °F 30.2 in NE 3.4 mph 8.1 mph 62.1% 0 in
22:24 66.9 °F 54 °F 30.2 in NE 4 mph 8 mph 63% 0 in
22:29 66.7 °F 54.1 °F 30.2 in NE 4.3 mph 7.4 mph 63.9% 0 in
22:34 66.6 °F 54.1 °F 30.2 in NE 4.7 mph 8.5 mph 64.4% 0 in
22:39 66.4 °F 54.3 °F 30.2 in NE 4.4 mph 9 mph 65% 0 in
22:44 66.2 °F 54.5 °F 30.2 in ENE 4 mph 7.4 mph 65.9% 0 in
22:49 65.8 °F 54.3 °F 30.2 in NE 4.1 mph 7.4 mph 66.4% 0 in
22:54 65.7 °F 54.5 °F 30.2 in NE 4.3 mph 8.1 mph 67% 0 in
22:59 65.5 °F 54.5 °F 30.2 in NE 4.5 mph 8.1 mph 67.6% 0 in
23:04 65.3 °F 54.5 °F 30.2 in NE 4.7 mph 8 mph 68% 0 in
23:09 65.3 °F 54.5 °F 30.2 in NE 4.5 mph 7 mph 68% 0 in
23:14 65.1 °F 54.3 °F 30.2 in NE 4 mph 7 mph 68% 0 in
23:19 65.1 °F 54.5 °F 30.2 in NE 4 mph 7 mph 68.5% 0 in
23:24 65.1 °F 54.7 °F 30.2 in NE 4 mph 7.4 mph 69% 0 in
23:29 65.1 °F 54.7 °F 30.2 in NE 4.1 mph 7 mph 69% 0 in
23:34 65.1 °F 54.7 °F 30.2 in NE 4.3 mph 6.4 mph 69% 0 in
23:39 65.1 °F 54.7 °F 30.2 in NE 4 mph 7.4 mph 69% 0 in
23:44 64.9 °F 54.5 °F 30.2 in NE 3.6 mph 7 mph 69% 0 in
23:49 64.8 °F 54.7 °F 30.2 in NE 3.9 mph 7 mph 69.8% 0 in
23:54 64.8 °F 54.7 °F 30.2 in NE 4.3 mph 6.2 mph 70% 0 in
23:59 64.6 °F 54.5 °F 30.2 in NE 4.2 mph 6.9 mph 70% 0 in
Murcia-Puente Tocinos, España
Compliments of Weather Underground - 3 mb

La estación de MeteoMurcia.com, publica sus datos en los siguientes proyectos:

Weather Underground PWS IMURCIAP2 Meteoclimatic www.awekas.at

W3Counter
Web Analytics